Villa Deloamit, Puerto Rico
Current Conditions -  °F | °C
As of 10:50 PM on Tuesday 21 Oct 2014 (Local Time) from TJBQ Reporting Station
Broken Clouds Broken Clouds  
Wind Chill: 75°   Ceiling: 8000
Heat Index: 75°   Visibility: 10mi
Dew Point: 73°   Wind: 3mph
Humidity: 94%   Direction: 120°ESE
Pressure: 29.99"   Gusts: NA
Location:  18.3946°N, 67.1158°W
Report Text: TJBQ 220250Z AUTO 12003KT 10SM BKN080 BKN110 24/23 A2999 TS RMK LTG VC AND DSNT NW RWY08 ATIS I
Loading
Personal Weather Stations






























Interactive Weather Map
Tropical Storm Tracking
New forecast layout! Learn more

10-Day Weather Forecast

Advertisements
Track Severe Weather on mobile